Time;durP1;ratioP1;P1;durP2;ratioP2;P2;SDS_P1;SDS_P2;PMS_P1;PMS_P2;Temp;Humidity;BMP_temperature;BMP_pressure;BME280_temperature;BME280_humidity;BME280_pressure;Samples;Min_cycle;Max_cycle;Signal;HPM_P1;HPM_P2
2021/11/05 00:01:25;;;;;;;;;27.25;27.25;;;;;15.66;95.33;102210.31;5033976;28;9791;-73
2021/11/05 00:04:20;;;;;;;;;31.25;31.25;;;;;15.60;95.36;102197.66;5033760;28;9737;-73
2021/11/05 00:07:16;;;;;;;;;35.00;33.50;;;;;15.58;95.37;102211.09;5033888;28;9806;-73
2021/11/05 00:10:11;;;;;;;;;29.75;29.75;;;;;15.66;95.21;102201.94;5033929;28;10023;-73
2021/11/05 00:13:08;;;;;;;;;30.00;28.75;;;;;15.66;95.21;102198.34;5033683;28;9696;-73
2021/11/05 00:16:03;;;;;;;;;34.75;33.75;;;;;15.66;95.40;102199.16;5035564;28;9740;-73
2021/11/05 00:18:59;;;;;;;;;37.75;33.25;;;;;15.56;95.48;102202.22;5033592;28;9807;-73
2021/11/05 00:21:55;;;;;;;;;27.50;27.25;;;;;15.61;95.04;102195.66;5033879;28;9810;-72
2021/11/05 00:24:51;;;;;;;;;24.00;23.50;;;;;15.56;95.12;102194.72;5032974;28;9606;-73
2021/11/05 00:27:47;;;;;;;;;27.33;26.67;;;;;15.59;95.14;102198.78;5032274;28;9722;-73
2021/11/05 00:30:43;;;;;;;;;31.00;29.50;;;;;15.67;95.02;102199.97;5013997;28;10389;-73
2021/11/05 00:33:38;;;;;;;;;32.75;32.25;;;;;15.62;95.04;102189.78;5024554;28;9691;-73
2021/11/05 00:36:21;;;;;;;;;29.75;27.75;;;;;15.66;94.69;102182.41;5014038;28;9727;-74
2021/11/05 00:39:17;;;;;;;;;28.50;27.25;;;;;15.64;94.74;102184.72;5013701;28;9776;-73
2021/11/05 00:42:12;;;;;;;;;29.67;29.67;;;;;15.68;94.71;102180.13;5023491;28;9737;-73
2021/11/05 00:45:09;;;;;;;;;36.00;31.00;;;;;15.61;94.84;102187.31;5015376;28;9468;-73
2021/11/05 00:48:04;;;;;;;;;33.00;32.00;;;;;15.66;94.38;102196.38;5013476;28;9771;-73
2021/11/05 00:51:00;;;;;;;;;33.00;32.00;;;;;15.67;94.26;102186.84;5013595;28;9607;-73
2021/11/05 00:53:56;;;;;;;;;29.75;29.75;;;;;15.72;94.37;102188.63;5013361;28;9607;-73
2021/11/05 00:56:52;;;;;;;;;28.25;27.50;;;;;15.69;94.27;102190.13;5013460;28;9460;-73
2021/11/05 00:59:47;;;;;;;;;36.25;33.00;;;;;15.74;94.13;102181.59;5033118;28;9534;-73
2021/11/05 01:02:44;;;;;;;;;32.25;31.25;;;;;15.74;93.59;102189.97;5032353;28;9538;-73
2021/11/05 01:05:40;;;;;;;;;37.00;33.33;;;;;15.80;93.59;102188.66;5032810;28;10371;-73
2021/11/05 01:08:36;;;;;;;;;31.50;31.50;;;;;15.78;93.12;102188.13;5034598;28;9438;-73
2021/11/05 01:11:31;;;;;;;;;28.25;28.25;;;;;15.85;93.03;102193.22;5032576;28;10299;-73
2021/11/05 01:14:27;;;;;;;;;32.25;31.50;;;;;15.86;92.73;102189.28;5032498;28;9463;-73
2021/11/05 01:17:00;;;;;;;;;30.50;30.50;;;;;15.87;92.77;102193.69;5033042;28;9467;-73
2021/11/05 01:19:55;;;;;;;;;26.33;26.00;;;;;15.92;92.80;102193.53;5032861;28;9386;-73
2021/11/05 01:22:51;;;;;;;;;31.67;27.00;;;;;15.99;92.56;102196.63;5031125;28;9566;-73
2021/11/05 01:25:46;;;;;;;;;31.33;31.00;;;;;16.00;92.33;102191.88;5043088;28;9318;-73
2021/11/05 01:28:15;;;;;;;;;37.00;33.33;;;;;15.99;92.20;102196.63;5031847;28;9420;-73
2021/11/05 01:31:10;;;;;;;;;29.67;28.33;;;;;16.00;92.47;102201.06;5032210;28;9226;-73
2021/11/05 01:34:06;;;;;;;;;34.33;33.00;;;;;16.02;92.13;102192.34;5032372;28;9392;-74
2021/11/05 01:37:02;;;;;;;;;25.67;25.67;;;;;16.06;92.30;102196.97;5031061;28;9374;-74
2021/11/05 01:39:57;;;;;;;;;36.00;34.00;;;;;16.08;92.38;102205.00;5034165;28;9386;-73
2021/11/05 01:42:53;;;;;;;;;24.50;24.50;;;;;16.06;92.66;102196.97;5014059;28;9362;-73
2021/11/05 01:45:49;;;;;;;;;21.00;20.33;;;;;16.04;92.99;102192.88;5023620;28;9485;-73
2021/11/05 01:48:45;;;;;;;;;35.00;34.00;;;;;16.10;92.87;102197.94;5013549;28;9496;-73
2021/11/05 01:51:40;;;;;;;;;28.25;27.75;;;;;16.10;92.96;102189.56;5012745;28;9493;-72
2021/11/05 01:54:36;;;;;;;;;33.33;30.00;;;;;16.08;93.19;102179.88;5018606;28;9470;-73
2021/11/05 01:57:32;;;;;;;;;31.75;31.75;;;;;16.10;92.79;102188.72;5032516;28;9445;-73
2021/11/05 02:00:30;;;;;;;;;32.33;28.67;;;;;16.17;92.63;102193.81;5032643;28;9564;-73
2021/11/05 02:03:25;;;;;;;;;30.00;30.00;;;;;16.16;92.48;102190.19;5031879;28;9283;-72
2021/11/05 02:06:22;;;;;;;;;31.33;31.33;;;;;16.15;92.63;102190.53;5032510;28;9400;-73
2021/11/05 02:09:21;;;;;;;;;26.00;26.00;;;;;16.15;92.35;102196.13;5032225;28;9377;-73
2021/11/05 02:12:17;;;;;;;;;34.67;33.00;;;;;16.03;92.83;102194.03;5032945;28;9223;-72
2021/11/05 02:15:14;;;;;;;;;29.00;28.33;;;;;16.03;92.90;102196.81;5032069;28;9561;-73
2021/11/05 02:18:10;;;;;;;;;34.75;33.75;;;;;15.96;93.08;102193.72;5032159;28;9469;-73
2021/11/05 02:21:11;;;;;;;;;33.50;32.25;;;;;16.00;92.96;102194.66;5032268;28;9595;-74
2021/11/05 02:24:07;;;;;;;;;31.33;31.33;;;;;15.99;93.08;102190.25;5031819;28;9625;-73
2021/11/05 02:27:03;;;;;;;;;32.25;32.25;;;;;15.92;93.30;102189.94;5032315;28;9484;-73
2021/11/05 02:30:01;;;;;;;;;33.00;32.33;;;;;15.88;93.44;102184.19;5032768;28;9450;-73
2021/11/05 02:32:31;;;;;;;;;34.50;33.00;;;;;15.85;93.68;102185.66;5015084;28;9472;-73
2021/11/05 02:35:27;;;;;;;;;34.33;31.67;;;;;15.84;93.68;102180.41;5032204;28;9391;-73
2021/11/05 02:38:24;;;;;;;;;33.33;32.33;;;;;15.81;93.25;102186.66;5032482;28;9402;-73
2021/11/05 02:41:20;;;;;;;;;32.00;31.33;;;;;15.84;93.43;102184.03;5037172;28;9416;-73
2021/11/05 02:44:16;;;;;;;;;31.67;31.67;;;;;15.82;93.47;102179.94;5035674;28;9454;-73
2021/11/05 02:47:25;;;;;;;;;34.00;33.00;;;;;15.85;93.18;102182.88;5035303;28;9409;-73
2021/11/05 02:50:20;;;;;;;;;26.75;26.75;;;;;15.81;93.55;102184.69;5035506;28;9543;-73
2021/11/05 02:53:16;;;;;;;;;30.33;29.00;;;;;15.87;92.99;102196.50;5035375;28;9465;-73
2021/11/05 02:56:12;;;;;;;;;29.00;28.50;;;;;15.80;93.48;102190.63;5035432;28;9482;-73
2021/11/05 02:59:08;;;;;;;;;32.75;32.50;;;;;15.71;93.80;102196.19;5035338;28;9614;-73
2021/11/05 03:02:04;;;;;;;;;32.67;32.33;;;;;15.76;93.51;102195.19;5033054;28;9395;-73
2021/11/05 03:05:00;;;;;;;;;29.67;29.67;;;;;15.73;93.37;102188.31;5059408;28;9475;-73
2021/11/05 03:07:55;;;;;;;;;32.33;32.00;;;;;15.76;93.19;102186.84;5035634;28;9403;-73
2021/11/05 03:10:51;;;;;;;;;27.00;27.00;;;;;15.76;93.09;102181.25;5034985;28;9419;-72
2021/11/05 03:13:47;;;;;;;;;29.33;29.33;;;;;15.67;93.71;102184.06;5035713;28;9382;-73
2021/11/05 03:16:43;;;;;;;;;29.67;29.67;;;;;15.62;94.13;102178.63;5033152;28;9398;-73
2021/11/05 03:19:39;;;;;;;;;30.00;30.00;;;;;15.60;94.19;102191.25;5036484;28;9373;-73
2021/11/05 03:22:34;;;;;;;;;30.25;27.75;;;;;15.58;93.89;102184.03;5034634;28;9554;-73
2021/11/05 03:25:02;;;;;;;;;34.00;30.50;;;;;15.57;93.89;102184.38;5034231;28;9564;-73
2021/11/05 03:27:58;;;;;;;;;30.33;27.67;;;;;15.64;93.82;102193.09;5034747;28;9556;-73
2021/11/05 03:30:53;;;;;;;;;36.00;33.00;;;;;15.55;94.16;102181.88;5034612;28;9461;-73
2021/11/05 03:33:49;;;;;;;;;32.25;32.25;;;;;15.59;93.90;102187.63;5033072;28;9598;-73
2021/11/05 03:36:31;;;;;;;;;34.25;33.25;;;;;15.62;93.71;102189.78;5033507;28;9553;-73
2021/11/05 03:39:26;;;;;;;;;32.67;32.67;;;;;15.61;93.68;102185.38;5035395;28;9527;-73
2021/11/05 03:42:22;;;;;;;;;28.67;27.33;;;;;15.60;93.95;102180.91;5035246;28;9486;-73
2021/11/05 03:45:19;;;;;;;;;37.00;33.75;;;;;15.67;93.54;102174.88;5034252;28;9383;-73
2021/11/05 03:48:15;;;;;;;;;30.33;30.00;;;;;15.67;93.68;102180.44;5034413;28;9783;-73
2021/11/05 03:51:11;;;;;;;;;34.50;32.75;;;;;15.66;93.89;102181.59;5032872;28;9574;-73
2021/11/05 03:54:07;;;;;;;;;30.33;29.67;;;;;15.68;93.79;102176.50;5032229;28;9682;-73
2021/11/05 03:57:03;;;;;;;;;30.25;26.75;;;;;15.67;93.94;102177.66;5033527;28;10319;-73
2021/11/05 03:59:59;;;;;;;;;31.00;30.33;;;;;15.72;93.93;102178.31;5034330;28;9565;-73
2021/11/05 04:02:55;;;;;;;;;28.67;28.67;;;;;15.74;93.71;102178.81;5034221;28;9402;-73
2021/11/05 04:05:51;;;;;;;;;32.75;32.75;;;;;15.65;94.42;102175.22;5033919;28;9390;-73
2021/11/05 04:08:47;;;;;;;;;31.00;30.50;;;;;15.71;94.19;102176.66;5032357;28;9559;-73
2021/11/05 04:11:42;;;;;;;;;41.75;36.25;;;;;15.67;94.53;102172.91;5032344;28;9614;-72
2021/11/05 04:14:38;;;;;;;;;32.50;32.50;;;;;15.67;94.71;102172.91;5032067;28;9603;-73
2021/11/05 04:17:06;;;;;;;;;33.00;33.00;;;;;15.67;94.53;102174.88;5048092;28;9634;-73
2021/11/05 04:20:04;;;;;;;;;36.00;33.00;;;;;15.69;94.58;102178.97;5021494;28;9612;-73
2021/11/05 04:22:45;;;;;;;;;34.50;32.50;;;;;15.68;94.81;102173.72;5016980;28;9646;-73
2021/11/05 04:25:42;;;;;;;;;34.00;33.00;;;;;15.63;95.01;102174.69;5037364;28;9623;-73
2021/11/05 04:28:38;;;;;;;;;30.75;30.75;;;;;15.57;95.42;102167.63;5015129;28;9628;-72
2021/11/05 04:31:33;;;;;;;;;33.00;32.25;;;;;15.67;95.09;102163.72;5019997;28;9717;-72
2021/11/05 04:34:29;;;;;;;;;36.75;35.00;;;;;15.67;94.71;102160.94;5014693;28;9539;-72
2021/11/05 04:37:25;;;;;;;;;32.00;32.00;;;;;15.66;94.84;102168.47;5026855;28;9702;-72
2021/11/05 04:40:21;;;;;;;;;31.75;31.75;;;;;15.66;95.01;102174.06;5033794;28;9531;-73
2021/11/05 04:43:16;;;;;;;;;31.50;31.50;;;;;15.65;95.00;102177.19;5031784;28;9611;-73
2021/11/05 04:46:12;;;;;;;;;38.75;33.50;;;;;15.62;95.31;102170.28;5035011;28;9628;-72
2021/11/05 04:49:08;;;;;;;;;35.25;33.75;;;;;15.65;95.10;102174.38;5031806;28;9551;-72
2021/11/05 04:52:04;;;;;;;;;30.00;27.25;;;;;15.71;94.76;102175.84;5034769;28;9695;-72
2021/11/05 04:54:59;;;;;;;;;36.33;33.33;;;;;15.68;94.70;102180.13;5034446;28;9502;-72
2021/11/05 04:57:56;;;;;;;;;38.33;33.67;;;;;15.74;94.53;102184.38;5033211;28;9540;-72
2021/11/05 05:00:51;;;;;;;;;34.75;32.75;;;;;15.75;94.45;102185.19;5032540;28;9576;-72
2021/11/05 05:03:47;;;;;;;;;30.00;30.00;;;;;15.67;94.58;102188.81;5031547;28;9825;-73
2021/11/05 05:06:43;;;;;;;;;39.00;33.75;;;;;15.76;93.98;102184.88;5031259;28;9608;-73
2021/11/05 05:09:39;;;;;;;;;29.25;28.00;;;;;15.64;94.67;102181.94;5033142;28;9471;-71
2021/11/05 05:12:24;;;;;;;;;31.50;30.25;;;;;15.77;94.07;102192.06;5033348;28;9647;-72
2021/11/05 05:15:19;;;;;;;;;31.75;31.75;;;;;15.74;94.33;102189.13;5032992;28;9706;-72
2021/11/05 05:18:01;;;;;;;;;28.50;28.50;;;;;15.72;94.21;102191.41;5032651;28;9652;-73
2021/11/05 05:20:57;;;;;;;;;30.00;27.50;;;;;15.77;94.23;102199.63;5027662;28;9600;-73
2021/11/05 05:24:07;;;;;;;;;35.75;34.00;;;;;15.83;93.96;102193.56;5032496;28;9618;-73
2021/11/05 05:27:03;;;;;;;;;34.00;32.50;;;;;15.74;94.74;102201.13;5014606;28;9812;-71
2021/11/05 05:30:00;;;;;;;;;34.25;33.25;;;;;15.71;94.52;102201.75;5013923;28;9796;-73
2021/11/05 05:32:56;;;;;;;;;36.75;33.50;;;;;15.65;95.17;102208.69;5029650;28;9805;-73
2021/11/05 05:35:52;;;;;;;;;32.00;31.50;;;;;15.70;95.21;102202.09;5031145;28;9775;-73
2021/11/05 05:38:47;;;;;;;;;34.00;33.00;;;;;15.74;94.61;102205.88;5032455;28;9706;-73
2021/11/05 05:41:43;;;;;;;;;31.75;31.75;;;;;15.81;94.29;102212.59;5031849;28;9763;-73
2021/11/05 05:44:39;;;;;;;;;36.00;33.75;;;;;15.78;94.23;102215.22;5031042;28;9595;-73
2021/11/05 05:47:36;;;;;;;;;32.75;32.75;;;;;15.73;94.60;102212.59;5032680;28;9876;-73
2021/11/05 05:50:32;;;;;;;;;36.00;34.25;;;;;15.81;94.57;102214.56;5031952;28;9765;-71
2021/11/05 05:53:27;;;;;;;;;33.50;32.75;;;;;15.78;94.26;102216.03;5029880;28;9915;-73
2021/11/05 05:56:23;;;;;;;;;39.00;36.25;;;;;15.90;93.92;102218.16;5032448;28;9782;-72
2021/11/05 05:59:19;;;;;;;;;38.75;35.75;;;;;16.00;93.75;102208.63;5030747;28;9794;-75
2021/11/05 06:02:15;;;;;;;;;42.25;36.50;;;;;16.02;93.42;102209.09;5030539;28;9812;-73
2021/11/05 06:04:57;;;;;;;;;42.50;38.00;;;;;16.08;93.17;102216.16;5012884;28;9900;-73
2021/11/05 06:07:52;;;;;;;;;43.25;36.50;;;;;16.12;92.63;102209.59;5027183;28;9868;-73
2021/11/05 06:10:48;;;;;;;;;31.75;30.75;;;;;16.18;92.77;102209.38;5031926;28;9900;-73
2021/11/05 06:13:43;;;;;;;;;43.75;37.50;;;;;16.16;92.22;102206.13;5016254;28;9586;-73
2021/11/05 06:16:11;;;;;;;;;43.00;37.50;;;;;16.23;91.64;102209.22;5025308;28;10329;-73
2021/11/05 06:19:07;;;;;;;;;35.50;34.00;;;;;16.17;91.60;102208.56;5046983;28;9844;-72
2021/11/05 06:21:43;;;;;;;;;33.50;32.00;;;;;16.29;91.16;102205.09;5032979;28;9738;-74
2021/11/05 06:24:23;;;;;;;;;42.00;36.75;;;;;16.35;90.97;102201.00;5034178;28;10277;-75
2021/11/05 06:26:59;;;;;;;;;37.25;35.25;;;;;16.34;91.00;102205.75;5036095;28;10552;-72
2021/11/05 06:29:55;;;;;;;;;44.00;38.75;;;;;16.44;90.86;102201.78;5035564;28;10472;-73
2021/11/05 06:32:51;;;;;;;;;40.25;35.50;;;;;16.40;90.28;102206.38;5037368;28;10116;-73
2021/11/05 06:35:48;;;;;;;;;42.75;37.00;;;;;16.60;90.20;102196.44;5035702;28;9714;-73
2021/11/05 06:38:43;;;;;;;;;37.50;35.25;;;;;16.70;89.18;102204.47;5036992;28;9703;-73
2021/11/05 06:41:40;;;;;;;;;41.50;36.50;;;;;16.80;88.51;102204.13;5046111;28;9575;-73
2021/11/05 06:44:36;;;;;;;;;40.50;37.25;;;;;16.74;88.21;102205.47;5035155;28;9538;-73
2021/11/05 06:47:32;;;;;;;;;38.25;35.75;;;;;16.90;88.13;102202.91;5046300;28;9795;-72
2021/11/05 06:50:27;;;;;;;;;44.75;38.25;;;;;16.91;87.97;102202.56;5035032;28;9615;-73
2021/11/05 06:53:23;;;;;;;;;39.00;36.00;;;;;17.01;87.50;102203.31;5035216;28;9486;-73
2021/11/05 06:56:19;;;;;;;;;39.75;35.00;;;;;17.10;86.62;102204.09;5035180;28;9696;-72
2021/11/05 06:59:15;;;;;;;;;40.67;36.00;;;;;17.20;85.90;102195.31;5036048;28;10373;-73
2021/11/05 07:02:10;;;;;;;;;37.67;34.33;;;;;17.07;86.43;102197.19;5035910;28;9582;-73
2021/11/05 07:05:12;;;;;;;;;38.50;34.25;;;;;17.04;86.28;102202.66;5035219;28;9399;-74
2021/11/05 07:08:09;;;;;;;;;40.00;36.00;;;;;17.29;86.01;102198.03;5035506;28;9767;-74
2021/11/05 07:11:05;;;;;;;;;37.33;34.33;;;;;17.39;85.95;102204.03;5034397;28;9395;-73
2021/11/05 07:13:34;;;;;;;;;38.33;35.00;;;;;17.49;85.06;102200.03;5035199;28;9421;-73
2021/11/05 07:16:32;;;;;;;;;36.00;33.00;;;;;17.77;84.89;102200.31;5035772;28;9308;-73
2021/11/05 07:19:27;;;;;;;;;35.33;34.00;;;;;17.90;83.82;102199.19;5035834;28;9079;-73
2021/11/05 07:21:59;;;;;;;;;32.67;31.67;;;;;17.98;83.33;102206.69;5035485;28;9107;-73
2021/11/05 07:24:55;;;;;;;;;35.67;33.33;;;;;18.12;82.62;102197.16;5034063;28;8958;-73
2021/11/05 07:27:50;;;;;;;;;30.67;30.67;;;;;18.11;82.97;102192.72;5034949;28;9101;-73
2021/11/05 07:30:46;;;;;;;;;36.33;34.33;;;;;18.20;82.00;102182.25;5034608;28;9071;-74
2021/11/05 07:33:41;;;;;;;;;36.33;34.33;;;;;18.12;82.15;102191.56;5033220;28;9172;-73
2021/11/05 07:36:37;;;;;;;;;33.25;32.25;;;;;18.18;82.58;102185.41;5033891;28;9189;-74
2021/11/05 07:39:32;;;;;;;;;44.33;36.67;;;;;18.39;81.64;102195.69;5034428;28;9641;-74
2021/11/05 07:42:29;;;;;;;;;38.67;35.00;;;;;18.54;81.19;102193.03;5014625;28;9103;-74
2021/11/05 07:45:25;;;;;;;;;38.67;34.67;;;;;18.62;80.34;102189.28;5034066;28;9052;-74
2021/11/05 07:48:21;;;;;;;;;38.67;34.67;;;;;18.64;80.06;102191.75;5032196;28;9001;-74
2021/11/05 07:51:16;;;;;;;;;36.00;33.75;;;;;18.84;79.17;102190.03;5032627;28;9067;-74
2021/11/05 07:54:12;;;;;;;;;38.00;35.25;;;;;19.00;78.62;102193.75;5033734;28;8872;-75
2021/11/05 07:57:08;;;;;;;;;35.75;33.00;;;;;18.96;78.52;102197.63;5033761;28;8848;-73
2021/11/05 08:00:10;;;;;;;;;33.25;32.00;;;;;19.14;78.02;102191.41;5028261;28;8962;-71
2021/11/05 08:03:06;;;;;;;;;73.25;63.75;;;;;19.36;77.71;102197.66;5033842;28;8972;-73
2021/11/05 08:06:01;;;;;;;;;66.00;54.50;;;;;19.30;76.93;102205.50;5038257;28;10844;-72
2021/11/05 08:08:57;;;;;;;;;91.00;88.50;;;;;19.47;76.92;102197.97;5045202;28;9882;-73
2021/11/05 08:11:53;;;;;;;;;50.00;42.33;;;;;19.58;76.81;102205.59;5033583;28;11351;-73
2021/11/05 08:14:48;;;;;;;;;63.50;51.50;;;;;19.63;76.20;102205.34;5034067;28;9295;-73
2021/11/05 08:17:44;;;;;;;;;52.00;43.33;;;;;19.81;75.60;102210.66;5032171;28;11650;-73
2021/11/05 08:20:40;;;;;;;;;54.25;46.00;;;;;19.84;75.28;102213.53;5033702;28;9402;-74
2021/11/05 08:23:36;;;;;;;;;129.00;124.00;;;;;20.04;74.85;102208.91;5032466;28;9883;-72
2021/11/05 08:26:32;;;;;;;;;44.00;38.00;;;;;19.94;74.50;102209.44;5033616;28;8842;-73
2021/11/05 08:29:47;;;;;;;;;58.75;48.50;;;;;20.10;73.29;102212.28;5033403;28;9002;-73
2021/11/05 08:32:42;;;;;;;;;58.00;48.50;;;;;20.12;73.63;102205.09;5033413;28;9720;-73
2021/11/05 08:35:41;;;;;;;;;36.50;33.75;;;;;20.46;72.52;102217.66;5030900;28;10501;-73
2021/11/05 08:42:32;;;;;;;;;40.00;35.75;;;;;20.52;71.27;102206.97;5026780;28;8976;-72
2021/11/05 08:45:29;;;;;;;;;31.50;31.00;;;;;20.43;72.16;102206.31;5032209;28;8845;-72
2021/11/05 08:48:26;;;;;;;;;38.25;34.25;;;;;20.68;71.51;102212.59;5031301;28;8885;-73
2021/11/05 08:50:57;;;;;;;;;47.75;39.75;;;;;20.65;71.79;102199.28;5030824;28;9617;-74
2021/11/05 08:53:53;;;;;;;;;33.25;31.50;;;;;20.43;70.99;102203.50;5033124;28;8849;-74
2021/11/05 08:56:48;;;;;;;;;34.75;32.75;;;;;20.75;70.17;102202.34;5034755;28;8853;-74
2021/11/05 08:59:45;;;;;;;;;34.25;32.75;;;;;20.75;71.33;102210.78;5032852;28;8892;-74
2021/11/05 09:02:43;;;;;;;;;36.50;32.00;;;;;21.05;69.30;102207.47;5043145;28;8879;-74
2021/11/05 09:05:39;;;;;;;;;33.00;31.50;;;;;21.04;68.91;102201.03;5033181;28;8841;-73
2021/11/05 09:08:38;;;;;;;;;33.25;30.25;;;;;21.12;68.43;102198.41;5033605;28;8853;-74
2021/11/05 09:11:34;;;;;;;;;32.75;30.50;;;;;20.98;68.28;102196.88;5031239;28;8845;-76
2021/11/05 09:14:30;;;;;;;;;59.00;48.50;;;;;21.11;69.39;102194.75;5032945;28;8833;-76
2021/11/05 09:17:26;;;;;;;;;32.50;31.00;;;;;21.30;67.92;102206.06;5032316;28;9439;-70
2021/11/05 09:20:22;;;;;;;;;34.00;32.00;;;;;21.12;68.58;102199.22;5032978;28;8853;-73
2021/11/05 09:23:18;;;;;;;;;37.50;34.00;;;;;21.00;68.41;102196.50;5032543;28;8853;-75
2021/11/05 09:26:14;;;;;;;;;47.00;39.67;;;;;21.23;68.08;102200.25;5033081;28;8911;-75
2021/11/05 09:29:10;;;;;;;;;44.50;38.50;;;;;21.24;68.07;102199.09;5031325;28;9053;-75
2021/11/05 09:32:06;;;;;;;;;34.25;32.25;;;;;21.28;68.85;102194.38;5034479;28;8863;-75
2021/11/05 09:35:02;;;;;;;;;36.25;32.75;;;;;21.22;68.75;102186.56;5033921;28;8837;-74
2021/11/05 09:37:58;;;;;;;;;35.75;33.25;;;;;21.27;67.81;102184.31;5013714;28;9534;-75
2021/11/05 09:40:53;;;;;;;;;46.50;39.75;;;;;21.59;67.43;102179.34;5016812;28;8972;-77
2021/11/05 09:43:49;;;;;;;;;29.75;29.25;;;;;21.48;67.39;102175.53;5031726;28;8849;-76
2021/11/05 09:46:45;;;;;;;;;72.75;65.25;;;;;21.57;66.94;102175.28;5031047;28;8887;-78
2021/11/05 09:49:42;;;;;;;;;36.75;33.75;;;;;21.49;67.09;102177.16;5048141;28;9624;-73
2021/11/05 09:52:39;;;;;;;;;35.75;32.75;;;;;21.80;66.83;102190.25;5035109;28;8839;-73
2021/11/05 09:55:40;;;;;;;;;34.25;32.50;;;;;21.62;66.19;102186.25;5036799;28;8905;-77
2021/11/05 09:58:38;;;;;;;;;50.75;43.75;;;;;21.71;66.70;102186.03;5034911;28;8850;-75
2021/11/05 10:01:34;;;;;;;;;33.50;31.75;;;;;21.68;66.47;102187.56;5036530;28;8952;-78
2021/11/05 10:04:31;;;;;;;;;34.75;31.50;;;;;21.69;65.92;102194.84;5037071;28;8845;-79
2021/11/05 10:07:27;;;;;;;;;36.00;33.00;;;;;21.58;66.09;102185.38;5037444;28;8899;-78
2021/11/05 10:10:34;;;;;;;;;27.25;27.25;;;;;21.62;66.08;102174.97;5030035;28;8956;-79
2021/11/05 10:13:41;;;;;;;;;32.25;30.00;;;;;21.92;65.47;102187.25;5035810;28;8841;-80
2021/11/05 10:16:37;;;;;;;;;26.75;24.25;;;;;21.53;66.48;102196.91;5017918;28;8864;-79
2021/11/05 10:20:09;;;;;;;;;33.50;32.00;;;;;21.42;66.45;102190.25;5024752;28;8964;-77
2021/11/05 10:23:06;;;;;;;;;33.25;30.75;;;;;21.50;66.83;102190.03;5017645;28;9583;-79
2021/11/05 10:26:03;;;;;;;;;30.00;29.75;;;;;21.60;66.30;102178.16;5033963;28;9598;-73
2021/11/05 10:29:00;;;;;;;;;28.50;28.50;;;;;21.61;66.69;102176.16;5034484;28;8849;-72
2021/11/05 10:32:11;;;;;;;;;34.75;32.75;;;;;21.82;65.82;102173.78;5034937;28;8865;-73
2021/11/05 10:35:21;;;;;;;;;38.25;32.25;;;;;21.61;65.94;102176.97;5035412;28;8884;-72
2021/11/05 10:38:18;;;;;;;;;31.75;30.50;;;;;22.05;64.82;102167.38;5035435;28;8841;-72
2021/11/05 10:41:18;;;;;;;;;31.00;30.00;;;;;22.09;64.46;102157.03;5035484;28;8849;-74
2021/11/05 10:44:16;;;;;;;;;29.75;29.50;;;;;22.00;65.01;102174.13;5035487;28;8845;-72
2021/11/05 10:47:12;;;;;;;;;30.25;30.00;;;;;22.00;64.98;102159.22;5033054;28;8839;-74
2021/11/05 10:50:12;;;;;;;;;30.75;30.00;;;;;22.21;64.45;102156.84;5035190;28;8845;-74
2021/11/05 10:53:12;;;;;;;;;29.50;28.50;;;;;21.98;64.54;102165.25;5036131;28;9585;-73
2021/11/05 10:56:19;;;;;;;;;31.50;30.50;;;;;21.72;65.64;102174.41;5035895;28;8841;-73
2021/11/05 10:59:15;;;;;;;;;37.75;33.75;;;;;21.61;66.58;102170.53;5034129;28;8865;-73
2021/11/05 11:02:24;;;;;;;;;34.75;32.00;;;;;21.57;66.37;102161.22;5035659;28;8845;-72
2021/11/05 11:05:40;;;;;;;;;39.75;35.00;;;;;21.83;65.34;102158.50;5033702;28;8850;-72
2021/11/05 11:08:44;;;;;;;;;32.75;31.25;;;;;21.99;65.01;102158.41;5020132;28;8942;-73
2021/11/05 11:11:45;;;;;;;;;32.00;30.75;;;;;21.42;67.36;102150.84;5036243;28;8899;-74
2021/11/05 11:14:40;;;;;;;;;34.50;32.50;;;;;22.00;65.53;102153.59;5017064;28;8832;-74
2021/11/05 11:17:53;;;;;;;;;34.25;32.50;;;;;22.01;65.09;102152.44;5034855;28;8848;-73
2021/11/05 11:20:49;;;;;;;;;50.67;43.33;;;;;21.96;65.41;102147.09;5034966;28;8856;-71
2021/11/05 11:23:45;;;;;;;;;106.00;103.50;;;;;22.15;66.72;102141.41;5034600;28;9339;-72
2021/11/05 11:26:49;;;;;;;;;62.67;51.67;;;;;22.04;65.45;102137.59;5034667;28;12492;-73
2021/11/05 11:29:45;;;;;;;;;35.50;33.25;;;;;22.39;64.05;102141.06;5034691;28;9239;-71
2021/11/05 11:32:41;;;;;;;;;57.25;47.25;;;;;22.14;65.03;102140.59;5034129;28;8829;-72
2021/11/05 11:35:42;;;;;;;;;30.75;30.00;;;;;22.20;64.41;102127.03;5034128;28;11224;-71
2021/11/05 11:38:39;;;;;;;;;33.00;31.50;;;;;22.56;64.47;102148.19;5034566;28;8841;-72
2021/11/05 11:41:35;;;;;;;;;43.75;37.75;;;;;22.45;64.15;102135.91;5032903;28;9606;-71
2021/11/05 11:44:34;;;;;;;;;34.75;32.50;;;;;22.49;63.66;102133.97;5034569;28;8959;-72
2021/11/05 11:47:41;;;;;;;;;39.75;36.00;;;;;22.01;64.91;102141.16;5029071;28;8833;-71
2021/11/05 11:50:38;;;;;;;;;45.50;39.00;;;;;22.16;64.67;102138.25;5035088;28;8837;-71
2021/11/05 11:53:34;;;;;;;;;40.00;35.50;;;;;22.32;63.82;102138.13;5034236;28;8873;-71
2021/11/05 11:56:36;;;;;;;;;33.50;31.75;;;;;22.04;63.58;102126.31;5033894;28;8852;-70
2021/11/05 11:59:32;;;;;;;;;38.50;34.00;;;;;21.87;64.92;102128.44;5024438;28;8931;-71
2021/11/05 12:02:35;;;;;;;;;33.75;32.00;;;;;22.13;63.93;102121.28;5033645;28;9673;-70
2021/11/05 12:05:30;;;;;;;;;29.50;29.50;;;;;21.79;65.42;102112.59;5033791;28;8906;-71
2021/11/05 12:08:35;;;;;;;;;29.25;29.00;;;;;21.93;65.60;102112.03;5033578;28;8825;-71
2021/11/05 12:11:31;;;;;;;;;36.75;33.25;;;;;21.81;66.34;102109.41;5013680;28;8868;-72
2021/11/05 12:14:26;;;;;;;;;40.75;36.25;;;;;21.81;65.23;102110.22;5014119;28;8852;-72
2021/11/05 12:17:22;;;;;;;;;44.50;38.25;;;;;21.68;65.81;102110.75;5024908;28;8849;-71
2021/11/05 12:20:33;;;;;;;;;24.25;24.25;;;;;21.67;65.44;102109.94;5035462;28;8837;-71
2021/11/05 12:23:28;;;;;;;;;36.25;32.00;;;;;21.69;66.23;102124.44;5031585;28;8879;-71
2021/11/05 12:26:48;;;;;;;;;30.50;30.25;;;;;21.58;66.50;102110.16;5032314;28;8872;-70
2021/11/05 12:29:48;;;;;;;;;23.50;23.50;;;;;21.60;66.37;102112.59;5033896;28;8865;-72
2021/11/05 12:32:45;;;;;;;;;28.50;28.50;;;;;21.62;65.89;102113.03;5034931;28;8831;-72
2021/11/05 12:35:48;;;;;;;;;34.25;31.50;;;;;21.50;67.38;102116.84;5032769;28;8977;-72
2021/11/05 12:39:04;;;;;;;;;29.50;29.25;;;;;21.45;66.91;102105.88;5033527;28;8924;-72
2021/11/05 12:42:05;;;;;;;;;27.25;26.25;;;;;21.23;67.31;102106.59;5033505;28;9572;-72
2021/11/05 12:45:03;;;;;;;;;28.25;28.25;;;;;21.14;68.49;102106.81;5015154;28;8856;-72
2021/11/05 12:48:00;;;;;;;;;28.00;27.50;;;;;21.28;67.06;102106.34;5032382;28;8825;-72
2021/11/05 12:50:57;;;;;;;;;20.00;19.75;;;;;21.41;66.67;102098.56;5033749;28;8849;-71
2021/11/05 12:54:10;;;;;;;;;33.75;32.00;;;;;21.09;67.82;102098.69;5032997;28;8876;-73
2021/11/05 12:57:05;;;;;;;;;28.25;27.50;;;;;21.29;67.38;102093.91;5032246;28;8861;-73
2021/11/05 13:00:03;;;;;;;;;29.25;28.75;;;;;21.00;68.48;102098.06;5027346;28;8849;-72
2021/11/05 13:03:03;;;;;;;;;19.75;19.75;;;;;20.88;68.13;102084.16;5021674;28;8855;-74
2021/11/05 13:06:01;;;;;;;;;26.50;26.50;;;;;21.11;67.22;102079.44;5034843;28;8879;-74
2021/11/05 13:08:56;;;;;;;;;23.25;23.25;;;;;21.15;67.21;102082.31;5056587;28;8833;-74
2021/11/05 13:11:52;;;;;;;;;22.25;21.75;;;;;20.98;67.85;102080.75;5031801;28;8829;-73
2021/11/05 13:14:49;;;;;;;;;24.50;24.25;;;;;20.78;68.39;102091.16;5032842;28;8853;-74
2021/11/05 13:17:45;;;;;;;;;26.50;26.50;;;;;20.66;68.72;102099.72;5032408;28;8928;-74
2021/11/05 13:20:41;;;;;;;;;26.25;26.25;;;;;20.57;69.11;102099.09;5031240;28;8861;-74
2021/11/05 13:23:37;;;;;;;;;24.00;24.00;;;;;20.29;70.51;102100.00;5032585;28;8860;-75
2021/11/05 13:26:33;;;;;;;;;30.25;29.50;;;;;20.26;71.00;102098.75;5032798;28;9372;-72
2021/11/05 13:29:29;;;;;;;;;27.25;27.25;;;;;20.19;71.45;102084.50;5023198;28;8841;-74
2021/11/05 13:32:24;;;;;;;;;30.25;28.75;;;;;20.11;71.41;102088.31;5033291;28;8856;-74